createdAt,value
2022-12-23T00:00:57.604Z,100020.41
2022-12-23T00:03:25.796Z,100057.16
2022-12-23T00:05:53.931Z,100059.13
2022-12-23T00:08:22.444Z,100055.59
2022-12-23T00:10:51.305Z,100055.84
2022-12-23T00:13:37.398Z,100051.28
2022-12-23T00:16:08.719Z,100051.66
2022-12-23T00:18:37.355Z,100047.56
2022-12-23T00:21:09.089Z,100039.47
2022-12-23T00:23:39.182Z,100035.66
2022-12-23T00:26:07.644Z,100041.53
2022-12-23T00:28:35.401Z,100015.03
2022-12-23T00:31:06.832Z,100045.19
2022-12-23T00:33:36.382Z,100056.16
2022-12-23T00:36:13.087Z,100047.22
2022-12-23T00:38:58.651Z,100054.59
2022-12-23T00:41:44.022Z,100053.31
2022-12-23T00:44:12.129Z,100048.56
2022-12-23T00:46:41.297Z,100052.44
2022-12-23T00:49:26.621Z,100057.97
2022-12-23T00:51:54.325Z,100062.59
2022-12-23T00:54:22.088Z,100071.56
2022-12-23T00:56:49.907Z,100063.16
2022-12-23T00:59:17.634Z,100052.81
2022-12-23T01:02:04.464Z,100055.84
2022-12-23T01:04:50.079Z,100045.53
2022-12-23T01:07:17.946Z,100047.41
2022-12-23T01:09:45.966Z,100061.78
2022-12-23T01:12:15.080Z,100052.03
2022-12-23T01:14:42.931Z,100053.78
2022-12-23T01:17:12.416Z,100059.19
2022-12-23T01:19:40.683Z,100058.03
2022-12-23T01:22:08.400Z,100053.84
2022-12-23T01:24:36.160Z,100052.00
2022-12-23T01:27:03.976Z,100053.09
2022-12-23T01:29:31.871Z,100058.72
2022-12-23T01:31:59.678Z,100055.78
2022-12-23T01:34:36.112Z,100051.53
2022-12-23T01:37:05.789Z,100048.19
2022-12-23T01:39:33.862Z,100056.59
2022-12-23T01:42:19.169Z,100051.19
2022-12-23T01:44:57.590Z,100052.13
2022-12-23T01:47:31.747Z,100022.13
2022-12-23T01:50:07.218Z,100052.91
2022-12-23T01:52:39.941Z,100056.53
2022-12-23T01:55:09.057Z,100064.81
2022-12-23T01:57:40.303Z,100059.44
2022-12-23T02:00:27.204Z,100059.34
2022-12-23T02:03:12.404Z,100065.09
2022-12-23T02:05:43.019Z,100063.25
2022-12-23T02:08:28.839Z,100058.94
2022-12-23T02:11:16.413Z,100060.84
2022-12-23T02:14:12.321Z,100053.09
2022-12-23T02:16:48.505Z,100062.72
2022-12-23T02:19:23.916Z,100056.34
2022-12-23T02:22:23.786Z,100050.09
2022-12-23T02:25:27.302Z,100055.59
2022-12-23T02:28:14.009Z,100065.88
2022-12-23T02:30:47.118Z,100070.28
2022-12-23T02:33:41.080Z,100060.28
2022-12-23T02:36:21.482Z,100065.53
2022-12-23T02:38:59.840Z,100067.59
2022-12-23T02:41:36.614Z,100067.47
2022-12-23T02:44:11.547Z,100074.34
2022-12-23T02:46:47.231Z,100076.88
2022-12-23T02:49:21.457Z,100082.25
2022-12-23T02:51:54.042Z,100042.28
2022-12-23T02:54:27.996Z,100045.00
2022-12-23T02:56:57.831Z,100087.34
2022-12-23T02:59:29.081Z,100088.69
2022-12-23T03:01:59.682Z,100086.75
2022-12-23T03:04:27.771Z,100094.75
2022-12-23T03:06:57.044Z,100086.69
2022-12-23T03:09:35.992Z,100084.09
2022-12-23T03:12:11.410Z,100094.91
2022-12-23T03:14:57.380Z,100093.25
2022-12-23T03:17:43.175Z,100100.50
2022-12-23T03:20:22.032Z,100102.88
2022-12-23T03:22:55.425Z,100105.44
2022-12-23T03:25:27.764Z,100114.06
2022-12-23T03:28:03.527Z,100115.63
2022-12-23T03:30:34.947Z,100107.72
2022-12-23T03:33:08.371Z,100116.31
2022-12-23T03:35:41.046Z,100109.75
2022-12-23T03:38:11.192Z,100120.03
2022-12-23T03:40:42.602Z,100126.53
2022-12-23T03:43:14.088Z,100125.09
2022-12-23T03:45:49.415Z,100116.41
2022-12-23T03:48:23.836Z,100110.16
2022-12-23T03:50:56.886Z,100112.91
2022-12-23T03:53:31.106Z,100061.91
2022-12-23T03:56:04.033Z,100122.63
2022-12-23T03:58:37.936Z,100113.81
2022-12-23T04:01:13.779Z,100114.88
2022-12-23T04:03:53.007Z,100118.59
2022-12-23T04:06:22.781Z,100130.53
2022-12-23T04:08:51.705Z,100134.69
2022-12-23T04:11:19.497Z,100142.34
2022-12-23T04:13:49.032Z,100139.53
2022-12-23T04:16:17.064Z,100138.72
2022-12-23T04:18:46.217Z,100135.63
2022-12-23T04:21:13.910Z,100132.38
2022-12-23T04:23:41.587Z,100133.19
2022-12-23T04:26:09.343Z,100138.41
2022-12-23T04:28:37.030Z,100146.22
2022-12-23T04:31:05.018Z,100146.09
2022-12-23T04:33:32.683Z,100152.09
2022-12-23T04:36:02.107Z,100150.13
2022-12-23T04:38:29.760Z,100160.34
2022-12-23T04:40:57.464Z,100148.00
2022-12-23T04:43:25.145Z,100142.00
2022-12-23T04:45:53.220Z,100127.25
2022-12-23T04:48:20.910Z,100147.94
2022-12-23T04:50:48.593Z,100143.38
2022-12-23T04:53:17.718Z,100145.94
2022-12-23T04:55:45.375Z,100142.63
2022-12-23T04:58:13.096Z,100154.00
2022-12-23T05:00:40.855Z,100156.38
2022-12-23T05:03:08.942Z,100154.81
2022-12-23T05:05:36.808Z,100153.31
2022-12-23T05:08:05.475Z,100152.69
2022-12-23T05:10:34.544Z,100154.38
2022-12-23T05:13:02.322Z,100154.69
2022-12-23T05:15:33.083Z,100162.41
2022-12-23T05:18:00.905Z,100172.59
2022-12-23T05:20:28.729Z,100174.28
2022-12-23T05:22:56.438Z,100174.66
2022-12-23T05:25:24.100Z,100161.25
2022-12-23T05:27:53.246Z,100169.72
2022-12-23T05:30:21.204Z,100180.00
2022-12-23T05:32:48.883Z,100175.50
2022-12-23T05:35:16.856Z,100186.84
2022-12-23T05:37:44.584Z,100187.31
2022-12-23T05:40:15.015Z,100185.34
2022-12-23T05:42:47.673Z,100199.66
2022-12-23T05:45:16.964Z,100198.13
2022-12-23T05:47:44.711Z,100207.75
2022-12-23T05:50:12.967Z,100211.91
2022-12-23T05:52:40.969Z,100211.34
2022-12-23T05:55:10.028Z,100217.03
2022-12-23T05:57:37.799Z,100218.78
2022-12-23T06:00:06.510Z,100196.13
2022-12-23T06:02:35.752Z,100215.94
2022-12-23T06:05:03.625Z,100219.97
2022-12-23T06:07:31.316Z,100222.16
2022-12-23T06:09:59.005Z,100208.19
2022-12-23T06:12:26.689Z,100207.97
2022-12-23T06:14:54.355Z,100209.66
2022-12-23T06:17:22.066Z,100218.31
2022-12-23T06:19:51.233Z,100236.72
2022-12-23T06:22:21.072Z,100217.81
2022-12-23T06:24:49.349Z,100224.31
2022-12-23T06:27:17.177Z,100162.88
2022-12-23T06:29:45.017Z,100227.38
2022-12-23T06:32:13.099Z,100218.78
2022-12-23T06:34:40.903Z,100214.19
2022-12-23T06:37:09.978Z,100218.28
2022-12-23T06:39:37.695Z,100200.00
2022-12-23T06:42:05.478Z,100210.84
2022-12-23T06:44:33.218Z,100210.00
2022-12-23T06:47:00.954Z,100210.00
2022-12-23T06:49:28.673Z,100221.56
2022-12-23T06:51:56.441Z,100218.47
2022-12-23T06:54:25.545Z,100221.75
2022-12-23T06:56:53.313Z,100221.19
2022-12-23T06:59:20.980Z,100216.84
2022-12-23T07:01:48.787Z,100218.47
2022-12-23T07:04:16.517Z,100222.19
2022-12-23T07:06:44.258Z,100241.69
2022-12-23T07:09:12.437Z,100246.97
2022-12-23T07:11:41.577Z,100261.53
2022-12-23T07:14:09.493Z,100252.31
2022-12-23T07:16:37.382Z,100262.38
2022-12-23T07:19:05.343Z,100265.81
2022-12-23T07:21:34.411Z,100258.13
2022-12-23T07:24:02.097Z,100265.00
2022-12-23T07:26:29.872Z,100280.91
2022-12-23T07:28:59.039Z,100273.16
2022-12-23T07:31:26.870Z,100277.88
2022-12-23T07:33:54.812Z,100298.25
2022-12-23T07:36:22.622Z,100298.31
2022-12-23T07:38:51.258Z,100306.72
2022-12-23T07:41:19.067Z,100306.91
2022-12-23T07:43:46.822Z,100309.97
2022-12-23T07:46:15.933Z,100308.81
2022-12-23T07:48:43.803Z,100313.03
2022-12-23T07:51:11.469Z,100317.13
2022-12-23T07:53:39.190Z,100311.34
2022-12-23T07:56:07.577Z,100312.06
2022-12-23T07:58:35.331Z,100252.53
2022-12-23T08:01:04.749Z,100313.69
2022-12-23T08:03:33.921Z,100310.16
2022-12-23T08:06:03.539Z,100317.59
2022-12-23T08:08:31.481Z,100311.75
2022-12-23T08:11:00.736Z,100313.97
2022-12-23T08:13:28.747Z,100316.53
2022-12-23T08:15:57.858Z,100319.25
2022-12-23T08:18:26.271Z,100326.94
2022-12-23T08:20:59.860Z,100323.06
2022-12-23T08:23:29.287Z,100334.28
2022-12-23T08:26:01.757Z,100331.88
2022-12-23T08:28:30.076Z,100340.09
2022-12-23T08:31:05.167Z,100338.41
2022-12-23T08:33:33.787Z,100337.81
2022-12-23T08:36:02.881Z,100342.50
2022-12-23T08:38:30.578Z,100352.88
2022-12-23T08:40:58.308Z,100348.13
2022-12-23T08:43:31.820Z,100309.34
2022-12-23T08:46:03.187Z,100351.28
2022-12-23T08:48:31.106Z,100354.03
2022-12-23T08:50:58.853Z,100346.44
2022-12-23T08:53:27.893Z,100357.69
2022-12-23T08:55:55.543Z,100345.84
2022-12-23T08:58:23.206Z,100364.78
2022-12-23T09:00:50.968Z,100362.00
2022-12-23T09:03:18.747Z,100375.97
2022-12-23T09:05:46.481Z,100381.63
2022-12-23T09:08:14.420Z,100385.66
2022-12-23T09:10:44.465Z,100369.31
2022-12-23T09:13:17.938Z,100369.59
2022-12-23T09:15:50.446Z,100391.66
2022-12-23T09:18:18.206Z,100391.72
2022-12-23T09:20:46.063Z,100391.94
2022-12-23T09:23:13.865Z,100381.69
2022-12-23T09:25:41.992Z,100382.97
2022-12-23T09:28:13.103Z,100384.09
2022-12-23T09:30:40.905Z,100383.00
2022-12-23T09:33:09.229Z,100378.72
2022-12-23T09:35:37.028Z,100379.22
2022-12-23T09:38:07.100Z,100389.19
2022-12-23T09:40:37.966Z,100355.16
2022-12-23T09:43:16.969Z,100359.38
2022-12-23T09:45:56.819Z,100394.41
2022-12-23T09:48:27.749Z,100397.56
2022-12-23T09:50:56.720Z,100380.31
2022-12-23T09:53:29.048Z,100377.56
2022-12-23T09:56:03.364Z,100368.34
2022-12-23T09:58:44.730Z,100369.50
2022-12-23T10:01:20.245Z,100376.41
2022-12-23T10:04:05.431Z,100372.16
2022-12-23T10:06:35.569Z,100362.44
2022-12-23T10:09:07.970Z,100335.47
2022-12-23T10:11:39.073Z,100372.25
2022-12-23T10:14:15.853Z,100378.78
2022-12-23T10:16:46.718Z,100383.88
2022-12-23T10:19:19.107Z,100380.66
2022-12-23T10:21:49.915Z,100376.09
2022-12-23T10:24:22.918Z,100382.22
2022-12-23T10:26:54.421Z,100348.25
2022-12-23T10:29:25.677Z,100375.50
2022-12-23T10:32:07.067Z,100361.88
2022-12-23T10:34:46.139Z,100380.03
2022-12-23T10:37:22.263Z,100351.81
2022-12-23T10:40:01.319Z,100364.97
2022-12-23T10:42:35.567Z,100365.88
2022-12-23T10:45:40.140Z,100366.66
2022-12-23T10:48:23.053Z,100352.56
2022-12-23T10:50:59.744Z,100360.31
2022-12-23T10:53:37.418Z,100374.97
2022-12-23T10:56:06.627Z,100366.84
2022-12-23T10:58:38.074Z,100376.94
2022-12-23T11:01:16.127Z,100377.06
2022-12-23T11:04:00.590Z,100371.25
2022-12-23T11:06:34.843Z,100369.25
2022-12-23T11:09:06.323Z,100367.94
2022-12-23T11:11:57.562Z,100368.66
2022-12-23T11:14:34.419Z,100378.38
2022-12-23T11:17:04.447Z,100375.69
2022-12-23T11:19:32.652Z,100380.44
2022-12-23T11:22:02.318Z,100369.63
2022-12-23T11:24:35.445Z,100359.81
2022-12-23T11:27:08.275Z,100365.19
2022-12-23T11:29:38.500Z,100369.91
2022-12-23T11:32:18.109Z,100368.03
2022-12-23T11:34:47.444Z,100373.00
2022-12-23T11:37:26.865Z,100342.34
2022-12-23T11:39:54.912Z,100367.63
2022-12-23T11:42:28.446Z,100368.34
2022-12-23T11:44:59.732Z,100366.44
2022-12-23T11:47:34.024Z,100353.50
2022-12-23T11:50:05.342Z,100348.56
2022-12-23T11:52:34.305Z,100354.16
2022-12-23T11:55:03.768Z,100360.16
2022-12-23T11:57:39.553Z,100295.56
2022-12-23T12:00:18.670Z,100321.41
2022-12-23T12:02:50.113Z,100330.75
2022-12-23T12:05:22.976Z,100338.31
2022-12-23T12:07:52.712Z,100338.19
2022-12-23T12:10:23.518Z,100334.50
2022-12-23T12:12:55.194Z,100328.88
2022-12-23T12:15:32.244Z,100294.66
2022-12-23T12:18:04.416Z,100316.72
2022-12-23T12:20:36.853Z,100322.56
2022-12-23T12:23:10.047Z,100312.47
2022-12-23T12:25:43.217Z,100318.47
2022-12-23T12:28:15.589Z,100299.66
2022-12-23T12:30:50.208Z,100296.41
2022-12-23T12:33:25.158Z,100316.00
2022-12-23T12:36:04.933Z,100262.56
2022-12-23T12:38:35.328Z,100299.22
2022-12-23T12:41:12.001Z,100291.69
2022-12-23T12:43:44.613Z,100245.91
2022-12-23T12:46:31.745Z,100310.22
2022-12-23T12:49:06.490Z,100308.16
2022-12-23T12:51:41.908Z,100279.84
2022-12-23T12:54:20.903Z,100299.50
2022-12-23T12:56:51.304Z,100312.28
2022-12-23T12:59:23.691Z,100296.63
2022-12-23T13:02:06.343Z,100303.94
2022-12-23T13:05:20.779Z,100309.03
2022-12-23T13:08:01.977Z,100309.63
2022-12-23T13:10:40.540Z,100274.34
2022-12-23T13:13:23.915Z,100315.94
2022-12-23T13:15:59.033Z,100311.63
2022-12-23T13:18:36.742Z,100273.97
2022-12-23T13:21:13.378Z,100307.81
2022-12-23T13:23:48.808Z,100276.25
2022-12-23T13:26:27.446Z,100247.44
2022-12-23T13:29:06.207Z,100277.50
2022-12-23T13:31:48.612Z,100284.00
2022-12-23T13:34:33.303Z,100281.19
2022-12-23T13:37:17.080Z,100288.97
2022-12-23T13:39:57.414Z,100285.59
2022-12-23T13:42:31.525Z,100278.78
2022-12-23T13:45:00.471Z,100281.56
2022-12-23T13:47:45.621Z,100283.25
2022-12-23T13:50:20.160Z,100280.66
2022-12-23T13:53:08.942Z,100283.09
2022-12-23T13:55:52.935Z,100292.78
2022-12-23T13:58:22.971Z,100298.38
2022-12-23T14:00:58.821Z,100296.06
2022-12-23T14:03:33.638Z,100288.50
2022-12-23T14:06:20.990Z,100283.31
2022-12-23T14:08:51.832Z,100280.00
2022-12-23T14:11:25.183Z,100256.84
2022-12-23T14:13:58.296Z,100238.38
2022-12-23T14:16:39.299Z,100277.16
2022-12-23T14:19:31.956Z,100254.72
2022-12-23T14:22:12.412Z,100242.63
2022-12-23T14:25:17.635Z,100255.84
2022-12-23T14:27:57.731Z,100256.97
2022-12-23T14:30:35.820Z,100259.88
2022-12-23T14:33:06.238Z,100255.81
2022-12-23T14:35:54.095Z,100261.41
2022-12-23T14:38:27.739Z,100262.63
2022-12-23T14:41:37.775Z,100271.94
2022-12-23T14:44:21.058Z,100267.72
2022-12-23T14:46:59.065Z,100276.13
2022-12-23T14:49:47.977Z,100274.41
2022-12-23T14:52:44.487Z,100275.97
2022-12-23T14:55:45.203Z,100274.91
2022-12-23T14:58:51.459Z,100276.16
2022-12-23T15:01:22.610Z,100276.16
2022-12-23T15:03:57.595Z,100249.53
2022-12-23T15:06:34.065Z,100275.53
2022-12-23T15:09:03.597Z,100282.81
2022-12-23T15:11:34.096Z,100259.22
2022-12-23T15:14:09.658Z,100267.34
2022-12-23T15:16:39.753Z,100270.13
2022-12-23T15:19:22.798Z,100270.78
2022-12-23T15:22:00.331Z,100266.56
2022-12-23T15:24:33.518Z,100268.91
2022-12-23T15:27:25.908Z,100273.28
2022-12-23T15:29:54.423Z,100239.47
2022-12-23T15:32:25.605Z,100279.69
2022-12-23T15:34:55.759Z,100274.16
2022-12-23T15:37:27.597Z,100254.06
2022-12-23T15:40:03.348Z,100267.22
2022-12-23T15:42:38.548Z,100262.78
2022-12-23T15:45:30.866Z,100248.38
2022-12-23T15:47:58.745Z,100251.22
2022-12-23T15:50:26.962Z,100254.06
2022-12-23T15:52:57.319Z,100241.88
2022-12-23T15:55:29.151Z,100254.06
2022-12-23T15:57:57.925Z,100246.53
2022-12-23T16:00:30.334Z,100250.38
2022-12-23T16:03:01.019Z,100250.25
2022-12-23T16:05:32.147Z,100253.47
2022-12-23T16:08:28.930Z,100236.94
2022-12-23T16:11:04.309Z,100234.38
2022-12-23T16:13:32.378Z,100234.56
2022-12-23T16:16:19.911Z,100233.72
2022-12-23T16:18:48.198Z,100230.44
2022-12-23T16:21:16.573Z,100236.44
2022-12-23T16:23:51.524Z,100219.28
2022-12-23T16:26:20.164Z,100218.00
2022-12-23T16:28:51.346Z,100227.38
2022-12-23T16:31:21.850Z,100198.66
2022-12-23T16:33:51.575Z,100202.38
2022-12-23T16:36:23.639Z,100193.88
2022-12-23T16:38:53.261Z,100187.28
2022-12-23T16:41:21.516Z,100187.69
2022-12-23T16:43:52.501Z,100187.03
2022-12-23T16:46:23.476Z,100169.91
2022-12-23T16:48:53.433Z,100182.78
2022-12-23T16:51:24.538Z,100179.41
2022-12-23T16:53:55.327Z,100182.00
2022-12-23T16:56:25.364Z,100182.66
2022-12-23T16:58:53.398Z,100186.91
2022-12-23T17:01:25.353Z,100180.31
2022-12-23T17:03:53.716Z,100179.50
2022-12-23T17:06:22.066Z,100133.78
2022-12-23T17:08:50.003Z,100181.81
2022-12-23T17:11:19.839Z,100179.66
2022-12-23T17:13:48.355Z,100135.47
2022-12-23T17:16:19.937Z,100179.91
2022-12-23T17:18:49.556Z,100181.53
2022-12-23T17:21:21.950Z,100177.91
2022-12-23T17:23:50.432Z,100182.25
2022-12-23T17:26:18.261Z,100187.56
2022-12-23T17:28:46.723Z,100148.59
2022-12-23T17:31:18.099Z,100167.41
2022-12-23T17:33:50.319Z,100185.28
2022-12-23T17:36:18.500Z,100191.13
2022-12-23T17:38:46.305Z,100185.50
2022-12-23T17:41:28.075Z,100177.34
2022-12-23T17:43:56.501Z,100186.88
2022-12-23T17:46:24.833Z,100190.22
2022-12-23T17:48:54.570Z,100190.66
2022-12-23T17:51:24.207Z,100188.81
2022-12-23T17:53:57.739Z,100194.78
2022-12-23T17:56:28.772Z,100191.50
2022-12-23T17:58:56.596Z,100199.47
2022-12-23T18:01:26.986Z,100195.31
2022-12-23T18:03:57.843Z,100197.69
2022-12-23T18:06:27.517Z,100191.78
2022-12-23T18:08:56.958Z,100183.41
2022-12-23T18:11:31.109Z,100208.78
2022-12-23T18:13:58.949Z,100190.13
2022-12-23T18:16:26.812Z,100200.25
2022-12-23T18:18:56.073Z,100196.63
2022-12-23T18:21:25.948Z,100192.47
2022-12-23T18:23:55.801Z,100193.69
2022-12-23T18:26:23.669Z,100118.66
2022-12-23T18:28:52.727Z,100204.38
2022-12-23T18:31:23.162Z,100194.22
2022-12-23T18:33:51.710Z,100194.06
2022-12-23T18:36:24.984Z,100198.81
2022-12-23T18:38:53.387Z,100190.78
2022-12-23T18:41:21.732Z,100194.66
2022-12-23T18:43:49.515Z,100198.06
2022-12-23T18:46:17.470Z,100140.38
2022-12-23T18:48:45.231Z,100196.84
2022-12-23T18:51:15.152Z,100187.22
2022-12-23T18:53:44.559Z,100202.69
2022-12-23T18:56:13.996Z,100200.59
2022-12-23T18:58:41.789Z,100153.81
2022-12-23T19:01:12.631Z,100196.81
2022-12-23T19:03:40.551Z,100134.06
2022-12-23T19:06:09.670Z,100187.09
2022-12-23T19:08:38.595Z,100187.13
2022-12-23T19:11:12.641Z,100182.75
2022-12-23T19:13:40.475Z,100180.53
2022-12-23T19:16:08.564Z,100182.44
2022-12-23T19:18:36.327Z,100197.06
2022-12-23T19:21:05.365Z,100193.81
2022-12-23T19:23:33.207Z,100190.91
2022-12-23T19:26:01.123Z,100196.91
2022-12-23T19:28:30.255Z,100186.53
2022-12-23T19:30:58.126Z,100187.97
2022-12-23T19:33:25.989Z,100198.56
2022-12-23T19:35:53.747Z,100200.69
2022-12-23T19:38:21.541Z,100189.16
2022-12-23T19:40:58.357Z,100200.94
2022-12-23T19:43:26.221Z,100198.56
2022-12-23T19:45:59.891Z,100165.78
2022-12-23T19:48:28.194Z,100143.66
2022-12-23T19:50:59.306Z,100201.34
2022-12-23T19:53:27.885Z,100196.13
2022-12-23T19:56:00.127Z,100201.38
2022-12-23T19:58:28.187Z,100120.16
2022-12-23T20:01:08.264Z,100191.56
2022-12-23T20:03:36.621Z,100202.84
2022-12-23T20:06:06.465Z,100204.84
2022-12-23T20:08:34.961Z,100204.22
2022-12-23T20:11:07.567Z,100205.53
2022-12-23T20:13:36.035Z,100214.72
2022-12-23T20:16:04.699Z,100206.16
2022-12-23T20:18:33.999Z,100196.94
2022-12-23T20:21:02.459Z,100151.28
2022-12-23T20:23:33.376Z,100215.13
2022-12-23T20:26:01.105Z,100213.50
2022-12-23T20:28:29.339Z,100216.94
2022-12-23T20:31:02.374Z,100163.22
2022-12-23T20:33:30.198Z,100210.19
2022-12-23T20:35:59.356Z,100207.44
2022-12-23T20:38:27.150Z,100215.09
2022-12-23T20:40:54.944Z,100206.84
2022-12-23T20:43:22.712Z,100179.31
2022-12-23T20:45:52.058Z,100206.84
2022-12-23T20:48:21.711Z,100217.63
2022-12-23T20:50:49.710Z,100215.09
2022-12-23T20:53:18.808Z,100203.94
2022-12-23T20:55:46.495Z,100212.09
2022-12-23T20:58:31.910Z,100217.00
2022-12-23T21:01:09.199Z,100217.25
2022-12-23T21:03:37.319Z,100220.03
2022-12-23T21:06:05.611Z,100215.66
2022-12-23T21:08:35.481Z,100218.84
2022-12-23T21:11:03.598Z,100216.03
2022-12-23T21:13:31.628Z,100208.81
2022-12-23T21:16:01.915Z,100209.16
2022-12-23T21:18:31.104Z,100204.59
2022-12-23T21:21:00.896Z,100221.34
2022-12-23T21:23:29.374Z,100232.09
2022-12-23T21:26:13.890Z,100226.19
2022-12-23T21:28:43.024Z,100221.59
2022-12-23T21:31:11.206Z,100224.00
2022-12-23T21:33:40.316Z,100225.97
2022-12-23T21:36:09.293Z,100231.16
2022-12-23T21:38:38.767Z,100216.69
2022-12-23T21:41:10.098Z,100219.53
2022-12-23T21:43:39.240Z,100228.75
2022-12-23T21:46:08.875Z,100227.88
2022-12-23T21:48:38.259Z,100218.91
2022-12-23T21:51:08.124Z,100229.47
2022-12-23T21:53:36.218Z,100237.41
2022-12-23T21:56:05.614Z,100233.16
2022-12-23T21:58:34.397Z,100233.09
2022-12-23T22:01:07.728Z,100244.34
2022-12-23T22:03:35.634Z,100235.97
2022-12-23T22:06:10.363Z,100226.91
2022-12-23T22:08:38.671Z,100243.69
2022-12-23T22:11:08.381Z,100245.94
2022-12-23T22:13:36.866Z,100207.22
2022-12-23T22:16:10.511Z,100235.22
2022-12-23T22:18:38.782Z,100246.63
2022-12-23T22:21:07.151Z,100247.84
2022-12-23T22:23:34.920Z,100245.22
2022-12-23T22:26:02.669Z,100245.88
2022-12-23T22:28:32.160Z,100251.34
2022-12-23T22:31:03.280Z,100242.13
2022-12-23T22:33:32.605Z,100249.66
2022-12-23T22:36:00.586Z,100231.56
2022-12-23T22:38:28.347Z,100257.91
2022-12-23T22:40:56.076Z,100243.47
2022-12-23T22:43:24.035Z,100259.34
2022-12-23T22:45:57.017Z,100239.81
2022-12-23T22:48:25.028Z,100244.63
2022-12-23T22:51:02.896Z,100238.72
2022-12-23T22:53:30.952Z,100246.47
2022-12-23T22:55:59.500Z,100253.19
2022-12-23T22:58:27.938Z,100254.19
2022-12-23T23:00:56.018Z,100249.72
2022-12-23T23:03:24.179Z,100250.53
2022-12-23T23:06:02.341Z,100246.56
2022-12-23T23:08:30.970Z,100256.19
2022-12-23T23:10:59.796Z,100233.41
2022-12-23T23:13:30.586Z,100247.19
2022-12-23T23:15:59.663Z,100220.28
2022-12-23T23:18:28.323Z,100265.09
2022-12-23T23:20:56.565Z,100256.84
2022-12-23T23:23:25.702Z,100263.69
2022-12-23T23:25:53.522Z,100267.31
2022-12-23T23:28:21.243Z,100253.38
2022-12-23T23:30:52.739Z,100257.03
2022-12-23T23:33:31.500Z,100260.41
2022-12-23T23:36:00.255Z,100217.91
2022-12-23T23:38:29.346Z,100252.81
2022-12-23T23:40:58.536Z,100259.00
2022-12-23T23:43:26.522Z,100263.59
2022-12-23T23:45:54.445Z,100250.03
2022-12-23T23:48:22.555Z,100251.22
2022-12-23T23:50:50.297Z,100259.22
2022-12-23T23:53:18.996Z,100215.38
2022-12-23T23:55:48.065Z,100275.56
2022-12-23T23:58:15.757Z,100257.19
